sensor_id;sensor_type;location;lat;lon;timestamp;pressure;altitude;pressure_sealevel;temperature;humidity
70555;BME280;58104;52.744;15.242;2023-04-08T00:01:52;101267.35;;;20.70;40.80
70555;BME280;58104;52.744;15.242;2023-04-08T00:04:18;101266.52;;;20.73;40.95
70555;BME280;58104;52.744;15.242;2023-04-08T00:06:43;101270.95;;;20.62;41.01
70555;BME280;58104;52.744;15.242;2023-04-08T00:09:09;101273.93;;;20.61;41.10
70555;BME280;58104;52.744;15.242;2023-04-08T00:11:34;101278.86;;;20.59;41.01
70555;BME280;58104;52.744;15.242;2023-04-08T00:14:01;101281.19;;;20.72;41.16
70555;BME280;58104;52.744;15.242;2023-04-08T00:16:27;101285.47;;;20.68;40.91
70555;BME280;58104;52.744;15.242;2023-04-08T00:18:51;101289.75;;;20.66;41.04
70555;BME280;58104;52.744;15.242;2023-04-08T00:21:16;101288.01;;;20.67;41.09
70555;BME280;58104;52.744;15.242;2023-04-08T00:23:42;101286.76;;;20.78;41.06
70555;BME280;58104;52.744;15.242;2023-04-08T00:26:07;101288.26;;;20.65;41.03
70555;BME280;58104;52.744;15.242;2023-04-08T00:28:33;101290.46;;;20.72;40.98
70555;BME280;58104;52.744;15.242;2023-04-08T00:30:59;101291.83;;;20.70;41.01
70555;BME280;58104;52.744;15.242;2023-04-08T00:33:23;101287.29;;;20.88;40.81
70555;BME280;58104;52.744;15.242;2023-04-08T00:35:49;101285.24;;;20.93;40.83
70555;BME280;58104;52.744;15.242;2023-04-08T00:38:14;101286.86;;;20.81;41.03
70555;BME280;58104;52.744;15.242;2023-04-08T00:40:40;101291.27;;;20.82;41.02
70555;BME280;58104;52.744;15.242;2023-04-08T00:43:06;101292.23;;;20.79;41.03
70555;BME280;58104;52.744;15.242;2023-04-08T00:45:32;101290.28;;;20.82;41.22
70555;BME280;58104;52.744;15.242;2023-04-08T00:47:57;101291.59;;;20.85;40.99
70555;BME280;58104;52.744;15.242;2023-04-08T00:50:22;101293.01;;;21.09;40.45
70555;BME280;58104;52.744;15.242;2023-04-08T00:52:47;101292.27;;;20.98;40.81
70555;BME280;58104;52.744;15.242;2023-04-08T00:55:12;101291.35;;;21.16;40.70
70555;BME280;58104;52.744;15.242;2023-04-08T00:57:38;101290.19;;;21.19;40.46
70555;BME280;58104;52.744;15.242;2023-04-08T01:00:04;101296.01;;;21.02;41.36
70555;BME280;58104;52.744;15.242;2023-04-08T01:02:35;101295.72;;;20.95;41.59
70555;BME280;58104;52.744;15.242;2023-04-08T01:04:59;101294.90;;;20.85;41.49
70555;BME280;58104;52.744;15.242;2023-04-08T01:07:24;101295.31;;;20.94;41.59
70555;BME280;58104;52.744;15.242;2023-04-08T01:09:50;101301.22;;;20.85;41.68
70555;BME280;58104;52.744;15.242;2023-04-08T01:12:13;101306.01;;;20.85;42.07
70555;BME280;58104;52.744;15.242;2023-04-08T01:14:40;101303.92;;;20.92;41.39
70555;BME280;58104;52.744;15.242;2023-04-08T01:17:02;101304.92;;;20.86;41.35
70555;BME280;58104;52.744;15.242;2023-04-08T01:19:31;101304.88;;;20.93;41.47
70555;BME280;58104;52.744;15.242;2023-04-08T01:21:54;101309.91;;;20.92;41.73
70555;BME280;58104;52.744;15.242;2023-04-08T01:24:25;101314.61;;;20.94;41.43
70555;BME280;58104;52.744;15.242;2023-04-08T01:26:44;101312.21;;;20.90;41.54
70555;BME280;58104;52.744;15.242;2023-04-08T01:29:11;101313.05;;;20.98;41.27
70555;BME280;58104;52.744;15.242;2023-04-08T01:31:35;101310.61;;;20.94;41.62
70555;BME280;58104;52.744;15.242;2023-04-08T01:34:01;101313.73;;;20.98;41.32
70555;BME280;58104;52.744;15.242;2023-04-08T01:36:25;101316.50;;;20.90;41.37
70555;BME280;58104;52.744;15.242;2023-04-08T01:38:51;101317.83;;;20.96;41.50
70555;BME280;58104;52.744;15.242;2023-04-08T01:41:17;101319.47;;;20.98;41.41
70555;BME280;58104;52.744;15.242;2023-04-08T01:43:43;101324.48;;;20.98;41.29
70555;BME280;58104;52.744;15.242;2023-04-08T01:46:10;101324.79;;;21.02;41.45
70555;BME280;58104;52.744;15.242;2023-04-08T01:48:34;101327.67;;;21.04;41.43
70555;BME280;58104;52.744;15.242;2023-04-08T01:50:59;101330.85;;;21.00;41.44
70555;BME280;58104;52.744;15.242;2023-04-08T01:53:24;101328.45;;;21.01;41.39
70555;BME280;58104;52.744;15.242;2023-04-08T01:55:56;101327.51;;;21.05;41.58
70555;BME280;58104;52.744;15.242;2023-04-08T01:58:18;101339.24;;;21.02;41.81
70555;BME280;58104;52.744;15.242;2023-04-08T02:00:41;101341.60;;;21.06;41.59
70555;BME280;58104;52.744;15.242;2023-04-08T02:03:05;101348.60;;;20.98;41.73
70555;BME280;58104;52.744;15.242;2023-04-08T02:05:30;101350.43;;;21.03;41.58
70555;BME280;58104;52.744;15.242;2023-04-08T02:08:00;101351.07;;;21.14;41.54
70555;BME280;58104;52.744;15.242;2023-04-08T02:10:20;101352.86;;;21.03;41.68
70555;BME280;58104;52.744;15.242;2023-04-08T02:12:46;101355.26;;;21.03;41.67
70555;BME280;58104;52.744;15.242;2023-04-08T02:15:12;101352.09;;;21.07;41.68
70555;BME280;58104;52.744;15.242;2023-04-08T02:17:43;101352.96;;;21.01;41.62
70555;BME280;58104;52.744;15.242;2023-04-08T02:20:06;101355.85;;;20.99;42.02
70555;BME280;58104;52.744;15.242;2023-04-08T02:22:33;101354.77;;;20.99;42.10
70555;BME280;58104;52.744;15.242;2023-04-08T02:24:53;101356.86;;;21.00;41.93
70555;BME280;58104;52.744;15.242;2023-04-08T02:27:18;101358.11;;;20.94;42.14
70555;BME280;58104;52.744;15.242;2023-04-08T02:29:44;101360.71;;;20.91;42.05
70555;BME280;58104;52.744;15.242;2023-04-08T02:32:10;101359.37;;;21.02;42.64
70555;BME280;58104;52.744;15.242;2023-04-08T02:34:34;101365.06;;;21.26;41.48
70555;BME280;58104;52.744;15.242;2023-04-08T02:36:59;101364.48;;;21.19;41.78
70555;BME280;58104;52.744;15.242;2023-04-08T02:39:30;101365.99;;;21.17;41.74
70555;BME280;58104;52.744;15.242;2023-04-08T02:41:50;101369.66;;;21.24;41.72
70555;BME280;58104;52.744;15.242;2023-04-08T02:44:16;101373.06;;;21.29;41.35
70555;BME280;58104;52.744;15.242;2023-04-08T02:46:41;101373.02;;;21.29;41.60
70555;BME280;58104;52.744;15.242;2023-04-08T02:49:06;101373.94;;;21.25;41.73
70555;BME280;58104;52.744;15.242;2023-04-08T02:51:31;101374.39;;;21.15;41.87
70555;BME280;58104;52.744;15.242;2023-04-08T02:53:57;101377.37;;;21.24;41.81
70555;BME280;58104;52.744;15.242;2023-04-08T02:56:22;101378.21;;;21.16;41.94
70555;BME280;58104;52.744;15.242;2023-04-08T02:58:47;101380.00;;;21.16;41.91
70555;BME280;58104;52.744;15.242;2023-04-08T03:01:12;101384.77;;;21.31;41.72
70555;BME280;58104;52.744;15.242;2023-04-08T03:03:38;101386.78;;;21.17;42.04
70555;BME280;58104;52.744;15.242;2023-04-08T03:06:03;101388.78;;;21.23;42.07
70555;BME280;58104;52.744;15.242;2023-04-08T03:08:29;101388.64;;;21.32;41.95
70555;BME280;58104;52.744;15.242;2023-04-08T03:10:55;101393.38;;;21.24;42.22
70555;BME280;58104;52.744;15.242;2023-04-08T03:13:20;101394.47;;;21.28;42.06
70555;BME280;58104;52.744;15.242;2023-04-08T03:15:45;101393.52;;;21.30;41.83
70555;BME280;58104;52.744;15.242;2023-04-08T03:18:10;101395.31;;;21.30;41.93
70555;BME280;58104;52.744;15.242;2023-04-08T03:20:35;101393.16;;;21.31;41.90
70555;BME280;58104;52.744;15.242;2023-04-08T03:23:01;101398.35;;;21.26;41.84
70555;BME280;58104;52.744;15.242;2023-04-08T03:25:26;101400.22;;;21.25;42.16
70555;BME280;58104;52.744;15.242;2023-04-08T03:27:52;101402.68;;;21.19;42.08
70555;BME280;58104;52.744;15.242;2023-04-08T03:30:17;101405.36;;;21.22;42.05
70555;BME280;58104;52.744;15.242;2023-04-08T03:32:43;101402.29;;;21.28;42.06
70555;BME280;58104;52.744;15.242;2023-04-08T03:35:08;101404.15;;;21.29;42.05
70555;BME280;58104;52.744;15.242;2023-04-08T03:37:33;101399.76;;;21.35;41.98
70555;BME280;58104;52.744;15.242;2023-04-08T03:39:59;101406.68;;;21.25;42.16
70555;BME280;58104;52.744;15.242;2023-04-08T03:42:24;101406.10;;;21.25;42.12
70555;BME280;58104;52.744;15.242;2023-04-08T03:44:50;101407.96;;;21.19;42.38
70555;BME280;58104;52.744;15.242;2023-04-08T03:47:15;101411.56;;;21.19;42.30
70555;BME280;58104;52.744;15.242;2023-04-08T03:49:41;101415.58;;;21.30;41.98
70555;BME280;58104;52.744;15.242;2023-04-08T03:52:07;101417.50;;;21.29;42.14
70555;BME280;58104;52.744;15.242;2023-04-08T03:54:31;101418.99;;;21.30;42.25
70555;BME280;58104;52.744;15.242;2023-04-08T03:56:57;101421.43;;;21.45;42.04
70555;BME280;58104;52.744;15.242;2023-04-08T03:59:22;101424.83;;;21.37;42.20
70555;BME280;58104;52.744;15.242;2023-04-08T04:01:48;101430.45;;;21.39;42.09
70555;BME280;58104;52.744;15.242;2023-04-08T04:04:13;101432.15;;;21.40;42.09
70555;BME280;58104;52.744;15.242;2023-04-08T04:06:39;101434.86;;;21.45;42.05
70555;BME280;58104;52.744;15.242;2023-04-08T04:09:04;101439.41;;;21.45;42.13
70555;BME280;58104;52.744;15.242;2023-04-08T04:11:29;101435.02;;;21.39;42.13
70555;BME280;58104;52.744;15.242;2023-04-08T04:13:54;101438.76;;;21.32;42.24
70555;BME280;58104;52.744;15.242;2023-04-08T04:16:20;101438.00;;;21.35;42.18
70555;BME280;58104;52.744;15.242;2023-04-08T04:18:45;101438.36;;;21.32;42.09
70555;BME280;58104;52.744;15.242;2023-04-08T04:21:10;101439.44;;;21.66;41.56
70555;BME280;58104;52.744;15.242;2023-04-08T04:23:36;101442.86;;;21.76;41.60
70555;BME280;58104;52.744;15.242;2023-04-08T04:26:06;101446.44;;;21.74;41.64
70555;BME280;58104;52.744;15.242;2023-04-08T04:28:26;101449.76;;;21.91;41.52
70555;BME280;58104;52.744;15.242;2023-04-08T04:30:52;101450.16;;;21.97;41.32
70555;BME280;58104;52.744;15.242;2023-04-08T04:33:18;101451.47;;;21.83;41.65
70555;BME280;58104;52.744;15.242;2023-04-08T04:35:43;101456.36;;;21.58;42.35
70555;BME280;58104;52.744;15.242;2023-04-08T04:38:08;101459.81;;;21.65;41.90
70555;BME280;58104;52.744;15.242;2023-04-08T04:40:34;101459.31;;;21.68;41.88
70555;BME280;58104;52.744;15.242;2023-04-08T04:42:59;101463.78;;;21.70;41.85
70555;BME280;58104;52.744;15.242;2023-04-08T04:45:25;101467.14;;;21.68;41.75
70555;BME280;58104;52.744;15.242;2023-04-08T04:47:51;101468.61;;;21.73;41.82
70555;BME280;58104;52.744;15.242;2023-04-08T04:50:16;101467.75;;;21.72;41.93
70555;BME280;58104;52.744;15.242;2023-04-08T04:52:41;101470.18;;;21.59;42.20
70555;BME280;58104;52.744;15.242;2023-04-08T04:55:08;101473.17;;;21.60;42.09
70555;BME280;58104;52.744;15.242;2023-04-08T04:57:32;101476.10;;;21.56;42.19
70555;BME280;58104;52.744;15.242;2023-04-08T04:59:57;101478.44;;;21.46;42.34
70555;BME280;58104;52.744;15.242;2023-04-08T05:02:23;101480.61;;;21.49;42.36
70555;BME280;58104;52.744;15.242;2023-04-08T05:04:48;101480.67;;;21.52;42.23
70555;BME280;58104;52.744;15.242;2023-04-08T05:07:14;101483.15;;;21.69;42.05
70555;BME280;58104;52.744;15.242;2023-04-08T05:09:39;101487.46;;;21.69;42.07
70555;BME280;58104;52.744;15.242;2023-04-08T05:12:05;101495.38;;;21.86;41.57
70555;BME280;58104;52.744;15.242;2023-04-08T05:14:31;101495.07;;;22.03;41.42
70555;BME280;58104;52.744;15.242;2023-04-08T05:16:56;101494.53;;;22.04;41.32
70555;BME280;58104;52.744;15.242;2023-04-08T05:19:22;101499.25;;;22.08;41.23
70555;BME280;58104;52.744;15.242;2023-04-08T05:21:47;101498.79;;;22.09;41.32
70555;BME280;58104;52.744;15.242;2023-04-08T05:24:13;101505.31;;;22.00;41.50
70555;BME280;58104;52.744;15.242;2023-04-08T05:26:38;101506.31;;;21.80;41.78
70555;BME280;58104;52.744;15.242;2023-04-08T05:29:03;101507.88;;;21.74;42.14
70555;BME280;58104;52.744;15.242;2023-04-08T05:31:29;101514.66;;;21.85;41.97
70555;BME280;58104;52.744;15.242;2023-04-08T05:33:54;101514.38;;;21.88;41.83
70555;BME280;58104;52.744;15.242;2023-04-08T05:36:19;101513.22;;;21.65;42.18
70555;BME280;58104;52.744;15.242;2023-04-08T05:38:44;101516.34;;;21.74;41.95
70555;BME280;58104;52.744;15.242;2023-04-08T05:41:10;101519.75;;;21.84;41.67
70555;BME280;58104;52.744;15.242;2023-04-08T05:43:35;101520.20;;;22.10;41.30
70555;BME280;58104;52.744;15.242;2023-04-08T05:46:05;101519.73;;;22.08;41.25
70555;BME280;58104;52.744;15.242;2023-04-08T05:48:26;101521.34;;;22.12;41.16
70555;BME280;58104;52.744;15.242;2023-04-08T05:50:52;101526.81;;;22.17;41.18
70555;BME280;58104;52.744;15.242;2023-04-08T05:53:17;101530.92;;;22.04;41.42
70555;BME280;58104;52.744;15.242;2023-04-08T05:55:42;101532.14;;;22.16;41.21
70555;BME280;58104;52.744;15.242;2023-04-08T05:58:07;101537.19;;;22.08;41.24
70555;BME280;58104;52.744;15.242;2023-04-08T06:00:33;101543.63;;;22.04;41.46
70555;BME280;58104;52.744;15.242;2023-04-08T06:02:58;101546.74;;;22.00;41.37
70555;BME280;58104;52.744;15.242;2023-04-08T06:05:23;101545.25;;;21.93;41.83
70555;BME280;58104;52.744;15.242;2023-04-08T06:07:49;101548.69;;;21.87;41.92
70555;BME280;58104;52.744;15.242;2023-04-08T06:10:14;101549.65;;;21.90;41.82
70555;BME280;58104;52.744;15.242;2023-04-08T06:12:39;101552.62;;;22.00;41.72
70555;BME280;58104;52.744;15.242;2023-04-08T06:15:06;101559.07;;;22.01;41.72
70555;BME280;58104;52.744;15.242;2023-04-08T06:17:31;101561.82;;;22.12;41.23
70555;BME280;58104;52.744;15.242;2023-04-08T06:19:56;101563.83;;;22.02;41.51
70555;BME280;58104;52.744;15.242;2023-04-08T06:22:21;101565.43;;;22.11;41.46
70555;BME280;58104;52.744;15.242;2023-04-08T06:24:47;101570.05;;;22.08;41.34
70555;BME280;58104;52.744;15.242;2023-04-08T06:27:12;101575.80;;;22.14;41.44
70555;BME280;58104;52.744;15.242;2023-04-08T06:29:37;101580.12;;;22.13;41.15
70555;BME280;58104;52.744;15.242;2023-04-08T06:32:02;101586.18;;;22.13;41.06
70555;BME280;58104;52.744;15.242;2023-04-08T06:34:27;101593.64;;;22.22;41.00
70555;BME280;58104;52.744;15.242;2023-04-08T06:36:53;101601.75;;;22.20;41.02
70555;BME280;58104;52.744;15.242;2023-04-08T06:39:18;101605.28;;;22.26;41.01
70555;BME280;58104;52.744;15.242;2023-04-08T06:41:44;101609.49;;;22.11;41.37
70555;BME280;58104;52.744;15.242;2023-04-08T06:44:09;101614.11;;;21.92;41.94
70555;BME280;58104;52.744;15.242;2023-04-08T06:46:35;101617.62;;;21.90;42.11
70555;BME280;58104;52.744;15.242;2023-04-08T06:49:00;101618.78;;;21.91;42.10
70555;BME280;58104;52.744;15.242;2023-04-08T06:51:25;101621.50;;;22.00;41.92
70555;BME280;58104;52.744;15.242;2023-04-08T06:53:51;101627.44;;;22.05;41.92
70555;BME280;58104;52.744;15.242;2023-04-08T06:56:16;101626.80;;;21.99;41.84
70555;BME280;58104;52.744;15.242;2023-04-08T06:58:42;101626.18;;;21.89;42.18
70555;BME280;58104;52.744;15.242;2023-04-08T07:01:07;101630.44;;;22.02;41.90
70555;BME280;58104;52.744;15.242;2023-04-08T07:03:32;101636.18;;;21.94;42.04
70555;BME280;58104;52.744;15.242;2023-04-08T07:05:58;101635.72;;;22.07;41.95
70555;BME280;58104;52.744;15.242;2023-04-08T07:08:23;101638.73;;;21.94;42.15
70555;BME280;58104;52.744;15.242;2023-04-08T07:10:51;101643.55;;;22.06;41.64
70555;BME280;58104;52.744;15.242;2023-04-08T07:13:14;101642.70;;;21.72;42.11
70555;BME280;58104;52.744;15.242;2023-04-08T07:15:40;101642.41;;;21.61;42.34
70555;BME280;58104;52.744;15.242;2023-04-08T07:18:05;101643.26;;;21.66;42.11
70555;BME280;58104;52.744;15.242;2023-04-08T07:20:30;101645.05;;;21.63;41.97
70555;BME280;58104;52.744;15.242;2023-04-08T07:22:56;101649.21;;;21.67;41.75
70555;BME280;58104;52.744;15.242;2023-04-08T07:25:21;101650.18;;;21.83;40.56
70555;BME280;58104;52.744;15.242;2023-04-08T07:27:47;101650.12;;;21.87;40.59
70555;BME280;58104;52.744;15.242;2023-04-08T07:30:12;101653.17;;;21.64;39.83
70555;BME280;58104;52.744;15.242;2023-04-08T07:32:38;101654.94;;;21.74;39.77
70555;BME280;58104;52.744;15.242;2023-04-08T07:35:04;101658.11;;;21.91;38.82
70555;BME280;58104;52.744;15.242;2023-04-08T07:37:28;101658.65;;;21.75;38.27
70555;BME280;58104;52.744;15.242;2023-04-08T07:39:55;101656.83;;;21.50;37.32
70555;BME280;58104;52.744;15.242;2023-04-08T07:42:19;101658.89;;;21.34;37.24
70555;BME280;58104;52.744;15.242;2023-04-08T07:44:44;101662.95;;;21.17;36.92
70555;BME280;58104;52.744;15.242;2023-04-08T07:47:10;101666.94;;;21.09;36.88
70555;BME280;58104;52.744;15.242;2023-04-08T07:49:35;101663.96;;;20.90;36.96
70555;BME280;58104;52.744;15.242;2023-04-08T07:52:01;101664.36;;;20.89;36.73
70555;BME280;58104;52.744;15.242;2023-04-08T07:54:27;101664.70;;;20.75;36.22
70555;BME280;58104;52.744;15.242;2023-04-08T07:56:52;101672.17;;;20.64;36.28
70555;BME280;58104;52.744;15.242;2023-04-08T07:59:17;101673.09;;;20.78;35.45
70555;BME280;58104;52.744;15.242;2023-04-08T08:01:43;101673.59;;;20.29;35.98
70555;BME280;58104;52.744;15.242;2023-04-08T08:04:08;101671.62;;;20.38;36.67
70555;BME280;58104;52.744;15.242;2023-04-08T08:06:34;101671.98;;;20.45;36.73
70555;BME280;58104;52.744;15.242;2023-04-08T08:09:00;101677.17;;;20.52;37.05
70555;BME280;58104;52.744;15.242;2023-04-08T08:11:25;101677.89;;;20.58;37.01
70555;BME280;58104;52.744;15.242;2023-04-08T08:13:51;101683.11;;;20.74;36.56
70555;BME280;58104;52.744;15.242;2023-04-08T08:16:16;101681.64;;;20.68;36.74
70555;BME280;58104;52.744;15.242;2023-04-08T08:18:42;101683.68;;;20.69;36.56
70555;BME280;58104;52.744;15.242;2023-04-08T08:21:07;101683.73;;;20.65;36.59
70555;BME280;58104;52.744;15.242;2023-04-08T08:23:33;101689.52;;;20.56;36.56
70555;BME280;58104;52.744;15.242;2023-04-08T08:25:59;101688.68;;;20.42;36.21
70555;BME280;58104;52.744;15.242;2023-04-08T08:28:24;101690.29;;;20.43;36.29
70555;BME280;58104;52.744;15.242;2023-04-08T08:30:49;101691.88;;;20.36;36.52
70555;BME280;58104;52.744;15.242;2023-04-08T08:33:14;101694.28;;;20.38;35.97
70555;BME280;58104;52.744;15.242;2023-04-08T08:35:40;101696.82;;;20.33;35.72
70555;BME280;58104;52.744;15.242;2023-04-08T08:38:06;101700.62;;;20.38;36.03
70555;BME280;58104;52.744;15.242;2023-04-08T08:40:31;101701.19;;;20.44;35.75
70555;BME280;58104;52.744;15.242;2023-04-08T08:42:56;101708.15;;;20.44;35.89
70555;BME280;58104;52.744;15.242;2023-04-08T08:45:22;101706.82;;;20.36;35.91
70555;BME280;58104;52.744;15.242;2023-04-08T08:47:47;101710.52;;;20.54;35.50
70555;BME280;58104;52.744;15.242;2023-04-08T08:50:12;101716.11;;;20.65;34.72
70555;BME280;58104;52.744;15.242;2023-04-08T08:52:38;101714.97;;;20.41;34.84
70555;BME280;58104;52.744;15.242;2023-04-08T08:55:04;101720.40;;;20.38;34.82
70555;BME280;58104;52.744;15.242;2023-04-08T08:57:28;101721.06;;;20.29;34.68
70555;BME280;58104;52.744;15.242;2023-04-08T08:59:53;101722.61;;;20.02;35.03
70555;BME280;58104;52.744;15.242;2023-04-08T09:02:24;101726.84;;;20.06;35.30
70555;BME280;58104;52.744;15.242;2023-04-08T09:04:55;101726.46;;;20.29;34.60
70555;BME280;58104;52.744;15.242;2023-04-08T09:07:10;101728.00;;;20.14;35.03
70555;BME280;58104;52.744;15.242;2023-04-08T09:12:02;101730.66;;;20.27;35.04
70555;BME280;58104;52.744;15.242;2023-04-08T09:14:26;101734.93;;;20.33;34.32
70555;BME280;58104;52.744;15.242;2023-04-08T09:16:52;101733.15;;;20.08;34.49
70555;BME280;58104;52.744;15.242;2023-04-08T09:19:17;101734.60;;;20.07;34.80
70555;BME280;58104;52.744;15.242;2023-04-08T09:21:43;101736.81;;;20.16;34.72
70555;BME280;58104;52.744;15.242;2023-04-08T09:24:09;101737.51;;;20.08;35.09
70555;BME280;58104;52.744;15.242;2023-04-08T09:26:34;101738.40;;;20.13;34.57
70555;BME280;58104;52.744;15.242;2023-04-08T09:29:00;101744.43;;;20.07;35.06
70555;BME280;58104;52.744;15.242;2023-04-08T09:31:26;101748.11;;;20.33;35.13
70555;BME280;58104;52.744;15.242;2023-04-08T09:33:52;101744.65;;;20.36;35.05
70555;BME280;58104;52.744;15.242;2023-04-08T09:36:16;101748.54;;;20.35;34.69
70555;BME280;58104;52.744;15.242;2023-04-08T09:38:40;101742.88;;;20.31;34.56
70555;BME280;58104;52.744;15.242;2023-04-08T09:41:07;101749.16;;;20.27;34.53
70555;BME280;58104;52.744;15.242;2023-04-08T09:43:33;101747.60;;;20.36;34.64
70555;BME280;58104;52.744;15.242;2023-04-08T09:45:59;101753.44;;;20.57;34.85
70555;BME280;58104;52.744;15.242;2023-04-08T09:48:27;101749.10;;;20.65;34.72
70555;BME280;58104;52.744;15.242;2023-04-08T09:50:49;101751.35;;;20.68;34.16
70555;BME280;58104;52.744;15.242;2023-04-08T09:53:21;101748.79;;;20.46;34.51
70555;BME280;58104;52.744;15.242;2023-04-08T09:55:40;101750.50;;;20.53;34.24
70555;BME280;58104;52.744;15.242;2023-04-08T09:58:13;101756.44;;;20.50;34.36
70555;BME280;58104;52.744;15.242;2023-04-08T10:00:43;101750.50;;;20.44;34.47
70555;BME280;58104;52.744;15.242;2023-04-08T10:03:05;101753.69;;;20.47;34.66
70555;BME280;58104;52.744;15.242;2023-04-08T10:05:23;101752.16;;;20.37;34.49
70555;BME280;58104;52.744;15.242;2023-04-08T10:07:47;101753.12;;;20.33;34.36
70555;BME280;58104;52.744;15.242;2023-04-08T10:10:12;101757.46;;;20.51;34.48
70555;BME280;58104;52.744;15.242;2023-04-08T10:12:39;101754.11;;;20.70;34.34
70555;BME280;58104;52.744;15.242;2023-04-08T10:17:29;101756.69;;;20.78;34.21
70555;BME280;58104;52.744;15.242;2023-04-08T10:19:54;101753.15;;;20.65;34.20
70555;BME280;58104;52.744;15.242;2023-04-08T10:29:36;101766.29;;;20.57;34.98
70555;BME280;58104;52.744;15.242;2023-04-08T10:32:02;101762.34;;;20.67;34.53
70555;BME280;58104;52.744;15.242;2023-04-08T10:34:27;101762.71;;;20.53;34.53
70555;BME280;58104;52.744;15.242;2023-04-08T10:36:54;101761.94;;;20.83;35.31
70555;BME280;58104;52.744;15.242;2023-04-08T10:39:18;101762.92;;;20.84;35.10
70555;BME280;58104;52.744;15.242;2023-04-08T10:41:45;101763.95;;;20.88;34.93
70555;BME280;58104;52.744;15.242;2023-04-08T10:44:14;101765.02;;;20.93;34.53
70555;BME280;58104;52.744;15.242;2023-04-08T10:46:36;101764.43;;;20.98;34.28
70555;BME280;58104;52.744;15.242;2023-04-08T10:49:00;101763.22;;;20.95;34.12
70555;BME280;58104;52.744;15.242;2023-04-08T10:51:29;101762.60;;;20.87;33.94
70555;BME280;58104;52.744;15.242;2023-04-08T10:53:50;101763.43;;;20.94;33.71
70555;BME280;58104;52.744;15.242;2023-04-08T10:56:16;101764.48;;;21.02;33.47
70555;BME280;58104;52.744;15.242;2023-04-08T10:58:47;101766.11;;;20.92;33.40
70555;BME280;58104;52.744;15.242;2023-04-08T11:01:08;101766.87;;;20.98;33.17
70555;BME280;58104;52.744;15.242;2023-04-08T11:03:32;101766.22;;;20.90;33.04
70555;BME280;58104;52.744;15.242;2023-04-08T11:05:59;101763.81;;;20.99;32.95
70555;BME280;58104;52.744;15.242;2023-04-08T11:08:27;101764.13;;;20.82;33.15
70555;BME280;58104;52.744;15.242;2023-04-08T11:10:49;101767.98;;;20.82;33.03
70555;BME280;58104;52.744;15.242;2023-04-08T11:13:15;101765.84;;;20.79;33.10
70555;BME280;58104;52.744;15.242;2023-04-08T11:15:41;101764.29;;;20.85;33.01
70555;BME280;58104;52.744;15.242;2023-04-08T11:18:06;101762.84;;;20.86;32.95
70555;BME280;58104;52.744;15.242;2023-04-08T11:20:32;101765.42;;;20.88;32.92
70555;BME280;58104;52.744;15.242;2023-04-08T11:22:56;101761.16;;;20.90;32.84
70555;BME280;58104;52.744;15.242;2023-04-08T11:25:22;101758.58;;;20.87;32.76
70555;BME280;58104;52.744;15.242;2023-04-08T11:27:48;101764.30;;;20.86;32.70
70555;BME280;58104;52.744;15.242;2023-04-08T11:30:13;101763.48;;;20.94;32.65
70555;BME280;58104;52.744;15.242;2023-04-08T11:32:38;101766.57;;;21.30;32.87
70555;BME280;58104;52.744;15.242;2023-04-08T11:35:04;101768.12;;;21.31;32.88
70555;BME280;58104;52.744;15.242;2023-04-08T11:37:36;101768.48;;;21.23;32.78
70555;BME280;58104;52.744;15.242;2023-04-08T11:39:55;101772.97;;;21.20;33.07
70555;BME280;58104;52.744;15.242;2023-04-08T11:42:25;101769.32;;;21.12;33.05
70555;BME280;58104;52.744;15.242;2023-04-08T11:44:45;101771.97;;;21.08;33.08
70555;BME280;58104;52.744;15.242;2023-04-08T11:47:11;101770.44;;;21.08;32.98
70555;BME280;58104;52.744;15.242;2023-04-08T11:49:45;101766.70;;;21.02;32.93
70555;BME280;58104;52.744;15.242;2023-04-08T11:52:01;101764.89;;;21.25;33.08
70555;BME280;58104;52.744;15.242;2023-04-08T11:54:28;101760.67;;;21.21;33.26
70555;BME280;58104;52.744;15.242;2023-04-08T11:56:52;101760.69;;;21.36;33.25
70555;BME280;58104;52.744;15.242;2023-04-08T11:59:17;101758.96;;;21.34;33.22
70555;BME280;58104;52.744;15.242;2023-04-08T12:01:42;101763.09;;;21.40;33.16
70555;BME280;58104;52.744;15.242;2023-04-08T12:04:10;101758.50;;;21.30;33.36
70555;BME280;58104;52.744;15.242;2023-04-08T12:06:33;101760.70;;;21.55;33.16
70555;BME280;58104;52.744;15.242;2023-04-08T12:08:59;101757.85;;;21.35;33.12
70555;BME280;58104;52.744;15.242;2023-04-08T12:11:24;101757.50;;;21.63;33.96
70555;BME280;58104;52.744;15.242;2023-04-08T12:13:50;101754.62;;;21.59;33.82
70555;BME280;58104;52.744;15.242;2023-04-08T12:16:15;101754.37;;;21.56;33.57
70555;BME280;58104;52.744;15.242;2023-04-08T12:18:41;101753.06;;;21.71;33.28
70555;BME280;58104;52.744;15.242;2023-04-08T12:21:06;101756.39;;;21.76;33.81
70555;BME280;58104;52.744;15.242;2023-04-08T12:23:31;101754.77;;;21.65;33.16
70555;BME280;58104;52.744;15.242;2023-04-08T12:25:57;101754.67;;;21.76;33.35
70555;BME280;58104;52.744;15.242;2023-04-08T12:28:23;101754.19;;;21.86;33.27
70555;BME280;58104;52.744;15.242;2023-04-08T12:30:48;101754.80;;;21.91;33.84
70555;BME280;58104;52.744;15.242;2023-04-08T12:33:14;101755.68;;;22.09;33.14
70555;BME280;58104;52.744;15.242;2023-04-08T12:35:39;101756.22;;;22.00;33.38
70555;BME280;58104;52.744;15.242;2023-04-08T12:38:05;101758.33;;;22.01;32.85
70555;BME280;58104;52.744;15.242;2023-04-08T12:40:30;101757.31;;;21.97;32.07
70555;BME280;58104;52.744;15.242;2023-04-08T12:42:55;101755.03;;;21.76;31.42